createdAt,value
2019-04-06T00:02:15.670Z,67.95
2019-04-06T00:04:42.104Z,67.76
2019-04-06T00:07:08.747Z,68.50
2019-04-06T00:09:35.350Z,68.20
2019-04-06T00:12:01.981Z,68.38
2019-04-06T00:14:30.587Z,68.92
2019-04-06T00:16:56.922Z,69.22
2019-04-06T00:19:23.255Z,69.74
2019-04-06T00:21:49.877Z,70.06
2019-04-06T00:24:16.218Z,70.14
2019-04-06T00:26:42.676Z,69.74
2019-04-06T00:29:09.372Z,69.82
2019-04-06T00:31:36.010Z,70.00
2019-04-06T00:34:02.575Z,70.12
2019-04-06T00:36:29.179Z,70.15
2019-04-06T00:38:55.498Z,69.81
2019-04-06T00:41:22.146Z,69.74
2019-04-06T00:43:48.782Z,69.80
2019-04-06T00:46:15.413Z,69.55
2019-04-06T00:48:41.732Z,69.68
2019-04-06T00:51:08.036Z,69.48
2019-04-06T00:53:34.344Z,68.88
2019-04-06T00:56:00.970Z,67.98
2019-04-06T00:58:27.301Z,67.21
2019-04-06T01:00:53.676Z,67.12
2019-04-06T01:03:20.049Z,67.18
2019-04-06T01:05:46.719Z,67.46
2019-04-06T01:08:13.367Z,67.58
2019-04-06T01:10:39.721Z,67.86
2019-04-06T01:13:06.028Z,68.18
2019-04-06T01:15:32.703Z,67.88
2019-04-06T01:17:59.387Z,67.77
2019-04-06T01:20:25.782Z,67.51
2019-04-06T01:22:52.487Z,67.31
2019-04-06T01:25:18.873Z,67.06
2019-04-06T01:27:45.208Z,67.30
2019-04-06T01:30:12.084Z,68.10
2019-04-06T01:32:38.706Z,68.55
2019-04-06T01:35:05.649Z,68.55
2019-04-06T01:37:32.416Z,68.34
2019-04-06T01:39:59.197Z,68.32
2019-04-06T01:42:25.591Z,68.51
2019-04-06T01:44:51.963Z,68.35
2019-04-06T01:47:18.320Z,68.07
2019-04-06T01:49:44.692Z,68.32
2019-04-06T01:52:11.005Z,67.94
2019-04-06T01:54:37.330Z,67.67
2019-04-06T01:57:03.742Z,67.62
2019-04-06T01:59:30.386Z,67.59
2019-04-06T02:02:01.873Z,67.51
2019-04-06T02:04:28.181Z,67.70
2019-04-06T02:06:54.527Z,68.09
2019-04-06T02:09:20.859Z,68.17
2019-04-06T02:11:47.193Z,68.23
2019-04-06T02:14:13.499Z,68.21
2019-04-06T02:16:39.858Z,68.29
2019-04-06T02:19:06.457Z,67.97
2019-04-06T02:21:32.790Z,67.90
2019-04-06T02:23:59.433Z,67.86
2019-04-06T02:26:30.958Z,67.76
2019-04-06T02:28:54.040Z,67.71
2019-04-06T02:31:38.781Z,67.93
2019-04-06T02:34:07.290Z,68.11
2019-04-06T02:36:36.367Z,68.39
2019-04-06T02:39:06.594Z,68.28
2019-04-06T02:41:46.827Z,68.49
2019-04-06T02:44:13.366Z,68.34
2019-04-06T02:46:39.767Z,68.66
2019-04-06T02:49:06.143Z,68.64
2019-04-06T02:51:32.958Z,68.54
2019-04-06T02:53:59.313Z,68.67
2019-04-06T02:56:25.914Z,68.85
2019-04-06T02:58:52.322Z,69.86
2019-04-06T03:01:18.702Z,70.04
2019-04-06T03:03:45.023Z,69.56
2019-04-06T03:06:11.586Z,69.30
2019-04-06T03:08:38.455Z,69.02
2019-04-06T03:11:04.756Z,68.71
2019-04-06T03:13:31.480Z,68.69
2019-04-06T03:15:57.878Z,68.83
2019-04-06T03:18:24.212Z,68.67
2019-04-06T03:20:50.969Z,67.67
2019-04-06T03:23:17.657Z,67.28
2019-04-06T03:25:44.308Z,67.55
2019-04-06T03:28:10.970Z,67.61
2019-04-06T03:30:37.654Z,67.82
2019-04-06T03:33:04.034Z,67.71
2019-04-06T03:35:30.967Z,68.10
2019-04-06T03:37:57.900Z,68.26
2019-04-06T03:40:24.558Z,68.83
2019-04-06T03:42:50.927Z,68.57
2019-04-06T03:45:17.402Z,68.15
2019-04-06T03:47:43.724Z,67.62
2019-04-06T03:50:10.176Z,67.63
2019-04-06T03:52:36.471Z,67.59
2019-04-06T03:55:05.893Z,67.58
2019-04-06T03:57:32.249Z,67.47
2019-04-06T03:59:58.586Z,67.49
2019-04-06T04:02:25.140Z,67.73
2019-04-06T04:04:51.450Z,67.94
2019-04-06T04:07:17.804Z,68.13
2019-04-06T04:09:44.522Z,68.02
2019-04-06T04:12:31.019Z,67.80
2019-04-06T04:14:57.668Z,67.94
2019-04-06T04:17:24.421Z,67.90
2019-04-06T04:19:51.047Z,68.02
2019-04-06T04:22:17.371Z,67.93
2019-04-06T04:24:43.715Z,67.95
2019-04-06T04:27:10.050Z,68.13
2019-04-06T04:29:36.438Z,68.19
2019-04-06T04:32:02.753Z,68.06
2019-04-06T04:34:29.081Z,67.94
2019-04-06T04:36:55.497Z,67.75
2019-04-06T04:39:21.823Z,68.09
2019-04-06T04:41:48.386Z,68.05
2019-04-06T04:44:15.012Z,68.10
2019-04-06T04:46:41.441Z,68.49
2019-04-06T04:49:08.126Z,68.96
2019-04-06T04:51:37.223Z,69.15
2019-04-06T04:54:03.832Z,69.07
2019-04-06T04:56:30.194Z,68.73
2019-04-06T04:58:56.586Z,67.92
2019-04-06T05:01:22.981Z,68.21
2019-04-06T05:03:49.330Z,68.65
2019-04-06T05:06:17.619Z,68.52
2019-04-06T05:08:44.644Z,68.56
2019-04-06T05:11:10.964Z,68.52
2019-04-06T05:13:37.282Z,68.21
2019-04-06T05:16:12.478Z,68.18
2019-04-06T05:18:41.165Z,68.15
2019-04-06T05:21:09.822Z,67.87
2019-04-06T05:23:37.698Z,67.59
2019-04-06T05:26:05.385Z,67.31
2019-04-06T05:28:32.153Z,67.24
2019-04-06T05:30:58.528Z,66.96
2019-04-06T05:33:25.150Z,66.81
2019-04-06T05:35:52.385Z,66.77
2019-04-06T05:38:18.729Z,65.96
2019-04-06T05:40:45.081Z,65.74
2019-04-06T05:43:11.690Z,65.37
2019-04-06T05:45:38.057Z,65.11
2019-04-06T05:48:05.350Z,64.57
2019-04-06T05:50:31.698Z,64.28
2019-04-06T05:52:58.339Z,63.91
2019-04-06T05:55:25.069Z,63.74
2019-04-06T05:58:02.349Z,63.57
2019-04-06T06:00:20.221Z,63.38
2019-04-06T06:02:46.653Z,62.82
2019-04-06T06:05:14.044Z,61.55
2019-04-06T06:07:40.405Z,61.38
2019-04-06T06:10:06.914Z,60.47
2019-04-06T06:12:33.351Z,60.49
2019-04-06T06:14:59.647Z,60.77
2019-04-06T06:17:25.977Z,60.42
2019-04-06T06:19:52.752Z,59.85
2019-04-06T06:22:19.442Z,59.80
2019-04-06T06:24:45.814Z,59.22
2019-04-06T06:27:12.425Z,57.98
2019-04-06T06:29:38.749Z,56.53
2019-04-06T06:32:05.151Z,56.37
2019-04-06T06:34:31.822Z,55.82
2019-04-06T06:36:58.181Z,55.55
2019-04-06T06:39:24.902Z,54.55
2019-04-06T06:41:51.533Z,54.23
2019-04-06T06:44:17.858Z,53.00
2019-04-06T06:46:44.208Z,52.33
2019-04-06T06:49:10.525Z,52.49
2019-04-06T06:51:37.300Z,52.15
2019-04-06T06:54:04.099Z,50.84
2019-04-06T06:56:30.475Z,50.32
2019-04-06T06:58:56.876Z,49.93
2019-04-06T07:01:23.243Z,49.65
2019-04-06T07:03:49.749Z,49.94
2019-04-06T07:06:16.184Z,48.97
2019-04-06T07:08:42.543Z,49.10
2019-04-06T07:11:08.984Z,48.54
2019-04-06T07:13:35.289Z,47.83
2019-04-06T07:16:01.641Z,46.74
2019-04-06T07:18:28.461Z,46.56
2019-04-06T07:20:55.281Z,46.71
2019-04-06T07:23:21.937Z,46.33
2019-04-06T07:25:57.725Z,45.28
2019-04-06T07:28:16.864Z,45.22
2019-04-06T07:30:43.356Z,44.77
2019-04-06T07:33:10.026Z,44.22
2019-04-06T07:35:36.693Z,43.59
2019-04-06T07:38:03.387Z,43.65
2019-04-06T07:40:30.057Z,43.60
2019-04-06T07:42:56.497Z,43.57
2019-04-06T07:45:23.006Z,43.58
2019-04-06T07:47:49.977Z,43.29
2019-04-06T07:50:16.851Z,42.45
2019-04-06T07:52:44.345Z,42.73
2019-04-06T07:55:10.868Z,43.07
2019-04-06T07:57:37.354Z,43.31
2019-04-06T08:00:06.653Z,42.44
2019-04-06T08:02:33.493Z,41.66
2019-04-06T08:04:59.794Z,41.23
2019-04-06T08:07:26.466Z,40.37
2019-04-06T08:09:54.384Z,39.69
2019-04-06T08:12:21.219Z,39.80
2019-04-06T08:14:48.153Z,39.27
2019-04-06T08:17:14.604Z,38.52
2019-04-06T08:19:41.342Z,37.93
2019-04-06T08:22:07.761Z,37.52
2019-04-06T08:24:34.450Z,37.99
2019-04-06T08:27:01.362Z,38.66
2019-04-06T08:29:27.962Z,37.53
2019-04-06T08:31:54.526Z,36.71
2019-04-06T08:34:21.494Z,37.16
2019-04-06T08:36:48.247Z,36.10
2019-04-06T08:39:14.656Z,36.37
2019-04-06T08:41:41.416Z,36.57
2019-04-06T08:44:08.168Z,36.75
2019-04-06T08:46:34.865Z,36.04
2019-04-06T08:49:01.536Z,36.43
2019-04-06T08:51:29.196Z,36.13
2019-04-06T08:53:55.514Z,36.16
2019-04-06T08:56:22.233Z,36.40
2019-04-06T08:58:49.605Z,36.21
2019-04-06T09:01:16.036Z,35.80
2019-04-06T09:03:42.346Z,35.92
2019-04-06T09:06:08.727Z,35.35
2019-04-06T09:08:35.062Z,35.26
2019-04-06T09:11:01.633Z,34.96
2019-04-06T09:13:28.069Z,34.90
2019-04-06T09:15:54.727Z,34.75
2019-04-06T09:18:21.588Z,34.80
2019-04-06T09:20:48.242Z,34.68
2019-04-06T09:23:14.668Z,34.60
2019-04-06T09:25:41.316Z,34.72
2019-04-06T09:28:07.675Z,35.05
2019-04-06T09:30:33.981Z,35.53
2019-04-06T09:33:00.719Z,35.78
2019-04-06T09:35:27.087Z,35.66
2019-04-06T09:37:53.794Z,35.08
2019-04-06T09:40:20.352Z,35.15
2019-04-06T09:42:47.074Z,35.39
2019-04-06T09:45:30.843Z,35.13
2019-04-06T09:47:59.193Z,34.39
2019-04-06T09:50:30.083Z,33.93
2019-04-06T09:52:58.689Z,34.00
2019-04-06T09:55:29.846Z,33.32
2019-04-06T09:58:13.368Z,33.34
2019-04-06T10:00:42.563Z,32.47
2019-04-06T10:03:13.747Z,31.95
2019-04-06T10:05:50.976Z,32.01
2019-04-06T10:08:31.467Z,32.21
2019-04-06T10:11:00.062Z,32.08
2019-04-06T10:13:43.524Z,31.01
2019-04-06T10:16:20.897Z,31.59
2019-04-06T10:18:52.251Z,31.07
2019-04-06T10:21:21.386Z,31.27
2019-04-06T10:24:05.176Z,30.32
2019-04-06T10:26:36.870Z,30.05
2019-04-06T10:29:05.181Z,30.65
2019-04-06T10:31:31.878Z,30.64
2019-04-06T10:34:05.817Z,30.60
2019-04-06T10:36:34.058Z,29.80
2019-04-06T10:39:01.532Z,28.76
2019-04-06T10:41:34.535Z,29.54
2019-04-06T10:44:09.863Z,29.24
2019-04-06T10:46:38.566Z,29.23
2019-04-06T10:49:25.901Z,29.09
2019-04-06T10:51:58.313Z,29.20
2019-04-06T10:54:36.649Z,30.21
2019-04-06T10:57:11.196Z,29.20
2019-04-06T11:00:00.202Z,28.70
2019-04-06T11:02:36.120Z,28.14
2019-04-06T11:05:06.845Z,27.10
2019-04-06T11:07:51.973Z,27.04
2019-04-06T11:10:30.218Z,27.20
2019-04-06T11:13:11.807Z,27.18
2019-04-06T11:15:43.112Z,27.24
2019-04-06T11:18:28.170Z,27.90
2019-04-06T11:20:56.652Z,27.73
2019-04-06T11:23:30.614Z,27.22
2019-04-06T11:25:57.393Z,28.00
2019-04-06T11:28:28.864Z,26.76
2019-04-06T11:31:00.023Z,25.90
2019-04-06T11:33:37.618Z,25.62
2019-04-06T11:36:24.424Z,25.92
2019-04-06T11:39:07.753Z,25.12
2019-04-06T11:41:37.470Z,23.42
2019-04-06T11:44:08.751Z,21.89
2019-04-06T11:46:43.352Z,20.36
2019-04-06T11:49:11.681Z,18.97
2019-04-06T11:51:56.426Z,18.25
2019-04-06T11:54:24.724Z,15.78
2019-04-06T11:56:59.101Z,14.93
2019-04-06T11:59:43.860Z,13.72
2019-04-06T12:02:19.578Z,12.45
2019-04-06T12:04:57.821Z,13.14
2019-04-06T12:07:26.174Z,11.94
2019-04-06T12:10:00.540Z,11.60
2019-04-06T12:12:36.036Z,11.52
2019-04-06T12:15:06.141Z,12.11
2019-04-06T12:17:37.700Z,12.72
2019-04-06T12:20:19.643Z,12.87
2019-04-06T12:22:58.282Z,12.62
2019-04-06T12:25:30.817Z,12.25
2019-04-06T12:28:00.529Z,12.83
2019-04-06T12:30:45.762Z,12.63
2019-04-06T12:33:23.132Z,12.23
2019-04-06T12:36:04.851Z,13.22
2019-04-06T12:38:37.149Z,15.88
2019-04-06T12:41:18.279Z,15.60
2019-04-06T12:43:47.780Z,13.83
2019-04-06T12:46:16.350Z,14.70
2019-04-06T12:48:56.682Z,16.06
2019-04-06T12:51:25.164Z,16.40
2019-04-06T12:53:59.579Z,14.96
2019-04-06T12:56:33.727Z,13.47
2019-04-06T12:59:06.298Z,12.92
2019-04-06T13:01:51.344Z,14.82
2019-04-06T13:04:23.952Z,17.17
2019-04-06T13:06:59.453Z,19.20
2019-04-06T13:09:44.568Z,20.31
2019-04-06T13:12:39.249Z,19.18
2019-04-06T13:15:08.224Z,18.97
2019-04-06T13:17:53.900Z,19.96
2019-04-06T13:20:39.257Z,20.97
2019-04-06T13:23:10.703Z,22.32
2019-04-06T13:25:55.446Z,22.74
2019-04-06T13:28:24.329Z,22.30
2019-04-06T13:31:06.369Z,20.20
2019-04-06T13:33:35.044Z,19.64
2019-04-06T13:36:03.805Z,18.52
2019-04-06T13:38:48.982Z,18.86
2019-04-06T13:41:21.698Z,16.30
2019-04-06T13:44:07.003Z,17.35
2019-04-06T13:46:41.058Z,17.32
2019-04-06T13:49:22.377Z,18.47
2019-04-06T13:51:54.080Z,18.44
2019-04-06T13:54:31.552Z,18.21
2019-04-06T13:57:00.552Z,17.77
2019-04-06T13:59:29.091Z,18.55
2019-04-06T14:02:01.498Z,18.85
2019-04-06T14:04:29.891Z,19.64
2019-04-06T14:06:56.281Z,18.16
2019-04-06T14:09:41.262Z,17.13
2019-04-06T14:12:26.175Z,15.78
2019-04-06T14:14:54.387Z,14.09
2019-04-06T14:17:22.911Z,12.74
2019-04-06T14:19:54.154Z,13.16
2019-04-06T14:22:22.742Z,12.75
2019-04-06T14:24:51.475Z,11.92
2019-04-06T14:27:25.662Z,11.14
2019-04-06T14:30:02.855Z,11.73
2019-04-06T14:32:48.991Z,12.01
2019-04-06T14:35:32.489Z,13.50
2019-04-06T14:38:01.399Z,12.11
2019-04-06T14:40:43.008Z,11.93
2019-04-06T14:43:11.326Z,11.32
2019-04-06T14:45:56.473Z,11.99
2019-04-06T14:48:30.427Z,12.83
2019-04-06T14:51:12.042Z,12.78
2019-04-06T14:53:57.129Z,12.70
2019-04-06T14:56:28.745Z,12.91
2019-04-06T14:59:15.834Z,12.78
2019-04-06T15:02:01.034Z,13.69
2019-04-06T15:04:29.283Z,12.35
2019-04-06T15:07:11.171Z,12.18
2019-04-06T15:09:39.675Z,13.22
2019-04-06T15:12:11.828Z,13.22
2019-04-06T15:14:41.487Z,12.94
2019-04-06T15:17:27.110Z,12.86
2019-04-06T15:19:57.123Z,12.67
2019-04-06T15:22:25.352Z,12.83
2019-04-06T15:24:56.729Z,12.46
2019-04-06T15:27:25.122Z,13.54
2019-04-06T15:30:06.926Z,13.65
2019-04-06T15:32:52.064Z,12.23
2019-04-06T15:35:36.880Z,11.97
2019-04-06T15:38:13.853Z,12.37
2019-04-06T15:40:59.042Z,11.63
2019-04-06T15:43:39.244Z,11.60
2019-04-06T15:46:10.740Z,12.36
2019-04-06T15:48:55.609Z,12.19
2019-04-06T15:51:40.476Z,11.97
2019-04-06T15:54:21.124Z,12.31
2019-04-06T15:56:58.437Z,12.74
2019-04-06T15:59:36.031Z,14.70
2019-04-06T16:02:16.168Z,15.94
2019-04-06T16:04:44.641Z,16.98
2019-04-06T16:07:29.483Z,17.57
2019-04-06T16:09:55.447Z,19.65
2019-04-06T16:12:35.923Z,20.57
2019-04-06T16:15:07.634Z,22.13
2019-04-06T16:17:34.133Z,23.95
2019-04-06T16:20:06.520Z,25.68
2019-04-06T16:22:51.267Z,26.07
2019-04-06T16:25:27.194Z,26.46
2019-04-06T16:27:54.186Z,26.89
2019-04-06T16:30:21.113Z,27.27
2019-04-06T16:32:58.144Z,28.11
2019-04-06T16:35:43.769Z,28.72
2019-04-06T16:38:14.695Z,29.53
2019-04-06T16:40:42.789Z,30.87
2019-04-06T16:43:11.454Z,32.80
2019-04-06T16:45:55.402Z,35.34
2019-04-06T16:48:27.810Z,36.11
2019-04-06T16:51:14.460Z,37.45
2019-04-06T16:53:51.802Z,38.08
2019-04-06T16:56:31.001Z,38.40
2019-04-06T16:59:06.396Z,39.25
2019-04-06T17:01:43.870Z,41.01
2019-04-06T17:04:15.737Z,41.97
2019-04-06T17:07:02.030Z,42.46
2019-04-06T17:09:31.799Z,42.39
2019-04-06T17:12:06.053Z,43.12
2019-04-06T17:14:34.718Z,42.91
2019-04-06T17:17:06.332Z,42.68
2019-04-06T17:19:51.791Z,42.65
2019-04-06T17:22:29.378Z,42.77
2019-04-06T17:25:14.128Z,42.94
2019-04-06T17:27:42.456Z,43.35
2019-04-06T17:30:12.205Z,44.07
2019-04-06T17:32:58.116Z,44.16
2019-04-06T17:35:32.731Z,44.99
2019-04-06T17:38:10.151Z,45.32
2019-04-06T17:40:44.599Z,45.95
2019-04-06T17:43:16.285Z,46.08
2019-04-06T17:45:44.950Z,46.37
2019-04-06T17:48:20.372Z,46.63
2019-04-06T17:51:02.223Z,46.76
2019-04-06T17:53:30.922Z,46.99
2019-04-06T17:56:17.354Z,47.45
2019-04-06T17:58:46.330Z,48.07
2019-04-06T18:01:16.247Z,48.89
2019-04-06T18:03:50.542Z,48.83
2019-04-06T18:06:18.872Z,48.99
2019-04-06T18:08:56.097Z,49.38
2019-04-06T18:11:28.670Z,49.08
2019-04-06T18:13:55.159Z,49.07
2019-04-06T18:16:25.534Z,49.21
2019-04-06T18:18:52.182Z,48.91
2019-04-06T18:21:18.716Z,49.08
2019-04-06T18:23:45.047Z,49.01
2019-04-06T18:26:11.693Z,49.53
2019-04-06T18:28:38.072Z,49.89
2019-04-06T18:31:24.771Z,50.20
2019-04-06T18:33:56.303Z,50.93
2019-04-06T18:36:25.901Z,51.60
2019-04-06T18:38:58.805Z,51.61
2019-04-06T18:41:26.289Z,51.74
2019-04-06T18:43:56.865Z,51.97
2019-04-06T18:46:23.589Z,52.50
2019-04-06T18:48:50.259Z,52.86
2019-04-06T18:51:16.901Z,53.41
2019-04-06T18:53:43.732Z,53.53
2019-04-06T18:56:10.818Z,53.84
2019-04-06T18:58:38.044Z,54.37
2019-04-06T19:01:05.485Z,54.41
2019-04-06T19:03:40.432Z,54.76
2019-04-06T19:06:07.131Z,55.17
2019-04-06T19:08:34.301Z,55.25
2019-04-06T19:11:01.248Z,55.74
2019-04-06T19:13:27.654Z,55.97
2019-04-06T19:15:55.088Z,56.27
2019-04-06T19:18:21.433Z,56.78
2019-04-06T19:21:18.632Z,56.92
2019-04-06T19:23:45.063Z,57.26
2019-04-06T19:26:11.786Z,57.77
2019-04-06T19:28:38.116Z,57.85
2019-04-06T19:31:04.779Z,58.21
2019-04-06T19:33:31.542Z,58.47
2019-04-06T19:35:58.740Z,59.01
2019-04-06T19:38:25.600Z,59.84
2019-04-06T19:40:52.230Z,60.44
2019-04-06T19:43:18.867Z,60.39
2019-04-06T19:45:45.207Z,60.71
2019-04-06T19:48:11.910Z,61.14
2019-04-06T19:50:38.800Z,61.49
2019-04-06T19:53:05.735Z,61.97
2019-04-06T19:55:32.472Z,62.47
2019-04-06T19:57:59.775Z,62.36
2019-04-06T20:00:30.961Z,62.95
2019-04-06T20:02:57.879Z,63.12
2019-04-06T20:05:27.853Z,63.94
2019-04-06T20:07:54.278Z,64.29
2019-04-06T20:10:20.610Z,64.32
2019-04-06T20:12:47.079Z,64.46
2019-04-06T20:15:14.248Z,64.58
2019-04-06T20:17:40.744Z,64.95
2019-04-06T20:20:09.343Z,65.01
2019-04-06T20:22:36.532Z,65.28
2019-04-06T20:25:05.406Z,65.86
2019-04-06T20:27:32.181Z,66.03
2019-04-06T20:29:58.747Z,66.33
2019-04-06T20:32:25.171Z,66.75
2019-04-06T20:34:51.716Z,67.18
2019-04-06T20:37:19.439Z,67.31
2019-04-06T20:39:46.114Z,67.29
2019-04-06T20:42:13.764Z,67.58
2019-04-06T20:44:40.937Z,67.95
2019-04-06T20:47:07.637Z,67.55
2019-04-06T20:49:34.311Z,67.73
2019-04-06T20:52:00.720Z,67.82
2019-04-06T20:54:27.451Z,67.84
2019-04-06T20:56:58.052Z,68.04
2019-04-06T20:59:22.933Z,68.20
2019-04-06T21:01:49.736Z,68.13
2019-04-06T21:04:16.690Z,68.66
2019-04-06T21:06:43.690Z,68.49
2019-04-06T21:09:12.874Z,68.62
2019-04-06T21:11:39.423Z,68.62
2019-04-06T21:14:05.922Z,68.77
2019-04-06T21:16:32.255Z,68.75
2019-04-06T21:18:58.983Z,68.54
2019-04-06T21:21:25.881Z,68.97
2019-04-06T21:23:52.963Z,69.16
2019-04-06T21:26:19.693Z,69.32
2019-04-06T21:28:46.554Z,69.59
2019-04-06T21:31:14.208Z,69.83
2019-04-06T21:33:40.957Z,69.81
2019-04-06T21:36:07.314Z,69.93
2019-04-06T21:38:33.647Z,69.87
2019-04-06T21:41:00.095Z,69.88
2019-04-06T21:43:27.785Z,69.90
2019-04-06T21:45:54.852Z,69.99
2019-04-06T21:48:22.377Z,69.68
2019-04-06T21:50:49.162Z,69.72
2019-04-06T21:53:15.785Z,70.04
2019-04-06T21:55:42.285Z,69.83
2019-04-06T21:58:08.691Z,69.44
2019-04-06T22:00:37.077Z,69.85
2019-04-06T22:03:06.121Z,69.83
2019-04-06T22:05:32.991Z,69.73
2019-04-06T22:07:59.490Z,69.94
2019-04-06T22:10:26.474Z,69.95
2019-04-06T22:12:53.444Z,70.00
2019-04-06T22:15:20.222Z,70.45
2019-04-06T22:17:46.738Z,70.45
2019-04-06T22:20:13.126Z,70.48
2019-04-06T22:22:40.456Z,70.79
2019-04-06T22:25:07.462Z,71.11
2019-04-06T22:27:34.558Z,71.02
2019-04-06T22:30:01.626Z,71.25
2019-04-06T22:32:28.876Z,71.12
2019-04-06T22:34:55.684Z,71.14
2019-04-06T22:37:22.452Z,71.10
2019-04-06T22:39:49.092Z,71.21
2019-04-06T22:42:15.470Z,71.37
2019-04-06T22:44:41.834Z,71.36
2019-04-06T22:47:08.178Z,71.17
2019-04-06T22:49:34.933Z,71.38
2019-04-06T22:52:01.345Z,71.51
2019-04-06T22:54:27.766Z,71.90
2019-04-06T22:56:54.408Z,72.14
2019-04-06T22:59:21.188Z,72.29
2019-04-06T23:01:47.522Z,72.23
2019-04-06T23:04:19.325Z,72.06
2019-04-06T23:06:48.258Z,72.25
2019-04-06T23:09:15.039Z,72.58
2019-04-06T23:11:41.442Z,72.82
2019-04-06T23:14:07.745Z,72.52
2019-04-06T23:16:34.502Z,72.10
2019-04-06T23:19:01.585Z,71.91
2019-04-06T23:21:27.971Z,72.01
2019-04-06T23:23:54.294Z,72.63
2019-04-06T23:26:21.397Z,72.37
2019-04-06T23:28:49.066Z,72.39
2019-04-06T23:31:16.277Z,72.02
2019-04-06T23:33:43.132Z,71.68
2019-04-06T23:36:09.967Z,71.97
2019-04-06T23:38:36.532Z,71.76
2019-04-06T23:41:03.974Z,71.91
2019-04-06T23:43:31.152Z,72.01
2019-04-06T23:45:58.036Z,71.91
2019-04-06T23:48:24.686Z,71.72
2019-04-06T23:50:51.625Z,72.17
2019-04-06T23:53:18.021Z,72.63
2019-04-06T23:55:44.601Z,72.62
2019-04-06T23:58:11.070Z,72.16
